sensor_id;sensor_type;location;lat;lon;timestamp;temperature;humidity
49242;DHT22;35079;52.704;13.814;2023-07-13T00:01:17;16.70;99.90
49242;DHT22;35079;52.704;13.814;2023-07-13T00:03:42;16.60;99.90
49242;DHT22;35079;52.704;13.814;2023-07-13T00:06:08;16.70;99.90
49242;DHT22;35079;52.704;13.814;2023-07-13T00:08:35;16.70;99.90
49242;DHT22;35079;52.704;13.814;2023-07-13T00:11:02;16.70;99.90
49242;DHT22;35079;52.704;13.814;2023-07-13T00:13:29;16.70;99.90
49242;DHT22;35079;52.704;13.814;2023-07-13T00:15:57;16.50;99.90
49242;DHT22;35079;52.704;13.814;2023-07-13T00:18:23;16.50;99.90
49242;DHT22;35079;52.704;13.814;2023-07-13T00:20:48;16.50;99.90
49242;DHT22;35079;52.704;13.814;2023-07-13T00:23:14;16.40;99.90
49242;DHT22;35079;52.704;13.814;2023-07-13T00:25:40;16.40;99.90
49242;DHT22;35079;52.704;13.814;2023-07-13T00:28:06;16.30;99.90
49242;DHT22;35079;52.704;13.814;2023-07-13T00:30:31;16.30;99.90
49242;DHT22;35079;52.704;13.814;2023-07-13T00:32:57;16.30;99.90
49242;DHT22;35079;52.704;13.814;2023-07-13T00:35:23;16.30;99.90
49242;DHT22;35079;52.704;13.814;2023-07-13T00:37:48;16.20;99.90
49242;DHT22;35079;52.704;13.814;2023-07-13T00:40:15;16.40;99.90
49242;DHT22;35079;52.704;13.814;2023-07-13T00:42:41;16.30;99.90
49242;DHT22;35079;52.704;13.814;2023-07-13T00:47:43;16.40;99.90
49242;DHT22;35079;52.704;13.814;2023-07-13T00:50:12;16.30;99.90
49242;DHT22;35079;52.704;13.814;2023-07-13T00:52:44;16.20;99.90
49242;DHT22;35079;52.704;13.814;2023-07-13T00:55:11;16.20;99.90
49242;DHT22;35079;52.704;13.814;2023-07-13T00:57:38;16.20;99.90
49242;DHT22;35079;52.704;13.814;2023-07-13T01:00:05;16.20;99.90
49242;DHT22;35079;52.704;13.814;2023-07-13T01:02:37;16.10;99.90
49242;DHT22;35079;52.704;13.814;2023-07-13T01:05:12;16.20;99.90
49242;DHT22;35079;52.704;13.814;2023-07-13T01:07:40;16.20;99.90
49242;DHT22;35079;52.704;13.814;2023-07-13T01:10:07;16.30;99.90
49242;DHT22;35079;52.704;13.814;2023-07-13T01:12:33;16.20;99.90
49242;DHT22;35079;52.704;13.814;2023-07-13T01:15:00;16.10;99.90
49242;DHT22;35079;52.704;13.814;2023-07-13T01:17:27;16.00;99.90
49242;DHT22;35079;52.704;13.814;2023-07-13T01:19:53;16.10;99.90
49242;DHT22;35079;52.704;13.814;2023-07-13T01:22:19;16.00;99.90
49242;DHT22;35079;52.704;13.814;2023-07-13T01:24:46;15.80;99.90
49242;DHT22;35079;52.704;13.814;2023-07-13T01:27:16;15.90;99.90
49242;DHT22;35079;52.704;13.814;2023-07-13T01:29:44;15.90;99.90
49242;DHT22;35079;52.704;13.814;2023-07-13T01:32:30;15.90;99.90
49242;DHT22;35079;52.704;13.814;2023-07-13T01:34:56;15.80;99.90
49242;DHT22;35079;52.704;13.814;2023-07-13T01:37:24;15.80;99.90
49242;DHT22;35079;52.704;13.814;2023-07-13T01:39:50;15.80;99.90
49242;DHT22;35079;52.704;13.814;2023-07-13T01:42:15;15.70;99.90
49242;DHT22;35079;52.704;13.814;2023-07-13T01:44:41;15.70;99.90
49242;DHT22;35079;52.704;13.814;2023-07-13T01:47:10;15.80;99.90
49242;DHT22;35079;52.704;13.814;2023-07-13T01:49:36;15.80;99.90
49242;DHT22;35079;52.704;13.814;2023-07-13T01:52:03;15.70;99.90
49242;DHT22;35079;52.704;13.814;2023-07-13T01:54:28;15.70;99.90
49242;DHT22;35079;52.704;13.814;2023-07-13T01:56:54;15.80;99.90
49242;DHT22;35079;52.704;13.814;2023-07-13T01:59:20;15.60;99.90
49242;DHT22;35079;52.704;13.814;2023-07-13T02:01:45;15.50;99.90
49242;DHT22;35079;52.704;13.814;2023-07-13T02:04:11;15.50;99.90
49242;DHT22;35079;52.704;13.814;2023-07-13T02:06:36;15.60;99.90
49242;DHT22;35079;52.704;13.814;2023-07-13T02:09:02;15.40;99.90
49242;DHT22;35079;52.704;13.814;2023-07-13T02:11:28;15.40;99.90
49242;DHT22;35079;52.704;13.814;2023-07-13T02:14:01;15.30;99.90
49242;DHT22;35079;52.704;13.814;2023-07-13T02:16:27;15.20;99.90
49242;DHT22;35079;52.704;13.814;2023-07-13T02:18:53;15.20;99.90
49242;DHT22;35079;52.704;13.814;2023-07-13T02:21:21;15.20;99.90
49242;DHT22;35079;52.704;13.814;2023-07-13T02:23:47;15.10;99.90
49242;DHT22;35079;52.704;13.814;2023-07-13T02:26:13;15.00;99.90
49242;DHT22;35079;52.704;13.814;2023-07-13T02:28:38;15.00;99.90
49242;DHT22;35079;52.704;13.814;2023-07-13T02:31:09;15.00;99.90
49242;DHT22;35079;52.704;13.814;2023-07-13T02:33:35;15.00;99.90
49242;DHT22;35079;52.704;13.814;2023-07-13T02:36:01;15.10;99.90
49242;DHT22;35079;52.704;13.814;2023-07-13T02:38:26;15.10;99.90
49242;DHT22;35079;52.704;13.814;2023-07-13T02:40:52;15.20;99.90
49242;DHT22;35079;52.704;13.814;2023-07-13T02:43:18;15.40;99.90
49242;DHT22;35079;52.704;13.814;2023-07-13T02:45:45;15.40;99.90
49242;DHT22;35079;52.704;13.814;2023-07-13T02:48:10;15.30;99.90
49242;DHT22;35079;52.704;13.814;2023-07-13T02:50:36;15.20;99.90
49242;DHT22;35079;52.704;13.814;2023-07-13T02:53:02;15.40;99.90
49242;DHT22;35079;52.704;13.814;2023-07-13T02:55:27;15.30;99.90
49242;DHT22;35079;52.704;13.814;2023-07-13T02:57:53;15.40;99.90
49242;DHT22;35079;52.704;13.814;2023-07-13T03:00:20;15.00;99.90
49242;DHT22;35079;52.704;13.814;2023-07-13T03:02:45;15.00;99.90
49242;DHT22;35079;52.704;13.814;2023-07-13T03:05:11;15.10;99.90
49242;DHT22;35079;52.704;13.814;2023-07-13T03:07:38;14.90;99.90
49242;DHT22;35079;52.704;13.814;2023-07-13T03:10:04;14.90;99.90
49242;DHT22;35079;52.704;13.814;2023-07-13T03:12:30;14.70;99.90
49242;DHT22;35079;52.704;13.814;2023-07-13T03:14:55;14.80;99.90
49242;DHT22;35079;52.704;13.814;2023-07-13T03:17:22;14.80;99.90
49242;DHT22;35079;52.704;13.814;2023-07-13T03:19:48;14.90;99.90
49242;DHT22;35079;52.704;13.814;2023-07-13T03:22:16;14.90;99.90
49242;DHT22;35079;52.704;13.814;2023-07-13T03:24:43;14.90;99.90
49242;DHT22;35079;52.704;13.814;2023-07-13T03:27:08;14.70;99.90
49242;DHT22;35079;52.704;13.814;2023-07-13T03:29:34;14.60;99.90
49242;DHT22;35079;52.704;13.814;2023-07-13T03:32:00;14.70;99.90
49242;DHT22;35079;52.704;13.814;2023-07-13T03:34:25;14.50;99.90
49242;DHT22;35079;52.704;13.814;2023-07-13T03:36:54;14.60;99.90
49242;DHT22;35079;52.704;13.814;2023-07-13T03:39:20;14.60;99.90
49242;DHT22;35079;52.704;13.814;2023-07-13T03:41:46;14.80;99.90
49242;DHT22;35079;52.704;13.814;2023-07-13T03:44:11;14.70;99.90
49242;DHT22;35079;52.704;13.814;2023-07-13T03:46:37;14.60;99.90
49242;DHT22;35079;52.704;13.814;2023-07-13T03:49:04;14.70;99.90
49242;DHT22;35079;52.704;13.814;2023-07-13T03:51:30;14.70;99.90
49242;DHT22;35079;52.704;13.814;2023-07-13T03:53:56;14.70;99.90
49242;DHT22;35079;52.704;13.814;2023-07-13T03:56:23;14.70;99.90
49242;DHT22;35079;52.704;13.814;2023-07-13T03:58:50;14.80;99.90
49242;DHT22;35079;52.704;13.814;2023-07-13T04:01:17;14.90;99.90
49242;DHT22;35079;52.704;13.814;2023-07-13T04:03:43;14.80;99.90
49242;DHT22;35079;52.704;13.814;2023-07-13T04:06:18;14.90;99.90
49242;DHT22;35079;52.704;13.814;2023-07-13T04:08:48;14.90;99.90
49242;DHT22;35079;52.704;13.814;2023-07-13T04:11:18;15.00;99.90
49242;DHT22;35079;52.704;13.814;2023-07-13T04:13:45;15.10;99.90
49242;DHT22;35079;52.704;13.814;2023-07-13T04:16:10;15.20;99.90
49242;DHT22;35079;52.704;13.814;2023-07-13T04:18:36;15.20;99.90
49242;DHT22;35079;52.704;13.814;2023-07-13T04:21:02;15.20;99.90
49242;DHT22;35079;52.704;13.814;2023-07-13T04:23:27;15.30;99.90
49242;DHT22;35079;52.704;13.814;2023-07-13T04:25:53;15.40;99.90
49242;DHT22;35079;52.704;13.814;2023-07-13T04:28:23;15.40;99.90
49242;DHT22;35079;52.704;13.814;2023-07-13T04:30:49;15.30;99.90
49242;DHT22;35079;52.704;13.814;2023-07-13T04:33:15;15.50;99.90
49242;DHT22;35079;52.704;13.814;2023-07-13T04:35:43;15.50;99.90
49242;DHT22;35079;52.704;13.814;2023-07-13T04:38:09;15.50;99.90
49242;DHT22;35079;52.704;13.814;2023-07-13T04:40:36;15.60;99.90
49242;DHT22;35079;52.704;13.814;2023-07-13T04:43:02;15.70;99.90
49242;DHT22;35079;52.704;13.814;2023-07-13T04:45:28;15.70;99.90
49242;DHT22;35079;52.704;13.814;2023-07-13T04:47:54;15.90;99.90
49242;DHT22;35079;52.704;13.814;2023-07-13T04:50:19;16.00;99.90
49242;DHT22;35079;52.704;13.814;2023-07-13T04:52:49;16.00;99.90
49242;DHT22;35079;52.704;13.814;2023-07-13T04:55:16;16.10;99.90
49242;DHT22;35079;52.704;13.814;2023-07-13T04:57:41;16.20;99.90
49242;DHT22;35079;52.704;13.814;2023-07-13T05:00:07;16.40;99.90
49242;DHT22;35079;52.704;13.814;2023-07-13T05:02:33;16.40;99.90
49242;DHT22;35079;52.704;13.814;2023-07-13T05:05:01;16.50;99.90
49242;DHT22;35079;52.704;13.814;2023-07-13T05:07:26;16.70;99.90
49242;DHT22;35079;52.704;13.814;2023-07-13T05:09:52;16.80;99.90
49242;DHT22;35079;52.704;13.814;2023-07-13T05:12:18;16.80;99.90
49242;DHT22;35079;52.704;13.814;2023-07-13T05:14:44;16.90;99.90
49242;DHT22;35079;52.704;13.814;2023-07-13T05:17:10;17.00;99.90
49242;DHT22;35079;52.704;13.814;2023-07-13T05:19:35;17.20;99.90
49242;DHT22;35079;52.704;13.814;2023-07-13T05:22:01;17.20;99.90
49242;DHT22;35079;52.704;13.814;2023-07-13T05:24:28;17.40;99.90
49242;DHT22;35079;52.704;13.814;2023-07-13T05:26:53;17.50;99.90
49242;DHT22;35079;52.704;13.814;2023-07-13T05:29:20;17.70;99.90
49242;DHT22;35079;52.704;13.814;2023-07-13T05:31:46;17.80;99.90
49242;DHT22;35079;52.704;13.814;2023-07-13T05:34:11;18.00;99.90
49242;DHT22;35079;52.704;13.814;2023-07-13T05:36:37;18.10;99.90
49242;DHT22;35079;52.704;13.814;2023-07-13T05:39:03;18.20;99.90
49242;DHT22;35079;52.704;13.814;2023-07-13T05:41:29;18.40;99.90
49242;DHT22;35079;52.704;13.814;2023-07-13T05:43:55;18.40;99.90
49242;DHT22;35079;52.704;13.814;2023-07-13T05:46:20;18.60;99.90
49242;DHT22;35079;52.704;13.814;2023-07-13T05:48:46;18.60;99.90
49242;DHT22;35079;52.704;13.814;2023-07-13T05:51:13;18.70;99.90
49242;DHT22;35079;52.704;13.814;2023-07-13T05:53:39;18.70;99.90
49242;DHT22;35079;52.704;13.814;2023-07-13T05:56:04;18.80;99.90
49242;DHT22;35079;52.704;13.814;2023-07-13T05:58:30;18.90;99.90
49242;DHT22;35079;52.704;13.814;2023-07-13T06:01:03;19.00;99.90
49242;DHT22;35079;52.704;13.814;2023-07-13T06:03:30;19.10;99.90
49242;DHT22;35079;52.704;13.814;2023-07-13T06:05:55;19.20;99.90
49242;DHT22;35079;52.704;13.814;2023-07-13T06:08:21;19.30;99.90
49242;DHT22;35079;52.704;13.814;2023-07-13T06:10:47;19.40;99.90
49242;DHT22;35079;52.704;13.814;2023-07-13T06:13:12;19.50;99.90
49242;DHT22;35079;52.704;13.814;2023-07-13T06:15:38;19.70;99.90
49242;DHT22;35079;52.704;13.814;2023-07-13T06:18:04;19.80;99.90
49242;DHT22;35079;52.704;13.814;2023-07-13T06:20:30;19.90;99.90
49242;DHT22;35079;52.704;13.814;2023-07-13T06:22:56;20.10;99.90
49242;DHT22;35079;52.704;13.814;2023-07-13T06:25:21;20.20;99.90
49242;DHT22;35079;52.704;13.814;2023-07-13T06:27:47;20.20;99.90
49242;DHT22;35079;52.704;13.814;2023-07-13T06:30:13;20.30;99.90
49242;DHT22;35079;52.704;13.814;2023-07-13T06:32:44;20.30;99.90
49242;DHT22;35079;52.704;13.814;2023-07-13T06:35:10;20.30;99.90
49242;DHT22;35079;52.704;13.814;2023-07-13T06:37:38;20.30;99.90
49242;DHT22;35079;52.704;13.814;2023-07-13T06:40:26;20.20;99.90
49242;DHT22;35079;52.704;13.814;2023-07-13T06:42:54;20.50;99.90
49242;DHT22;35079;52.704;13.814;2023-07-13T06:45:20;20.50;99.90
49242;DHT22;35079;52.704;13.814;2023-07-13T06:47:46;20.50;99.90
49242;DHT22;35079;52.704;13.814;2023-07-13T06:50:12;20.60;99.90
49242;DHT22;35079;52.704;13.814;2023-07-13T06:52:40;20.60;99.90
49242;DHT22;35079;52.704;13.814;2023-07-13T06:55:06;20.80;99.90
49242;DHT22;35079;52.704;13.814;2023-07-13T06:57:33;20.80;99.90
49242;DHT22;35079;52.704;13.814;2023-07-13T07:00:02;21.00;99.90
49242;DHT22;35079;52.704;13.814;2023-07-13T07:02:34;21.10;99.90
49242;DHT22;35079;52.704;13.814;2023-07-13T07:05:01;21.20;99.90
49242;DHT22;35079;52.704;13.814;2023-07-13T07:07:26;21.40;99.90
49242;DHT22;35079;52.704;13.814;2023-07-13T07:09:52;21.40;99.90
49242;DHT22;35079;52.704;13.814;2023-07-13T07:12:18;21.40;99.90
49242;DHT22;35079;52.704;13.814;2023-07-13T07:14:43;21.50;99.90
49242;DHT22;35079;52.704;13.814;2023-07-13T07:17:09;21.60;99.90
49242;DHT22;35079;52.704;13.814;2023-07-13T07:19:35;21.80;99.90
49242;DHT22;35079;52.704;13.814;2023-07-13T07:22:01;21.90;99.90
49242;DHT22;35079;52.704;13.814;2023-07-13T07:24:27;22.00;99.90
49242;DHT22;35079;52.704;13.814;2023-07-13T07:26:52;21.90;99.90
49242;DHT22;35079;52.704;13.814;2023-07-13T07:29:18;22.10;99.90
49242;DHT22;35079;52.704;13.814;2023-07-13T07:31:43;22.10;99.90
49242;DHT22;35079;52.704;13.814;2023-07-13T07:34:09;22.40;99.90
49242;DHT22;35079;52.704;13.814;2023-07-13T07:36:35;22.50;99.90
49242;DHT22;35079;52.704;13.814;2023-07-13T07:39:00;22.60;99.90
49242;DHT22;35079;52.704;13.814;2023-07-13T07:41:26;22.90;99.90
49242;DHT22;35079;52.704;13.814;2023-07-13T07:43:51;22.80;99.70
49242;DHT22;35079;52.704;13.814;2023-07-13T07:46:17;22.80;99.60
49242;DHT22;35079;52.704;13.814;2023-07-13T07:48:43;22.80;99.00
49242;DHT22;35079;52.704;13.814;2023-07-13T07:51:08;22.90;98.50
49242;DHT22;35079;52.704;13.814;2023-07-13T07:53:34;22.90;97.90
49242;DHT22;35079;52.704;13.814;2023-07-13T07:56:00;23.10;97.80
49242;DHT22;35079;52.704;13.814;2023-07-13T07:58:25;23.20;97.50
49242;DHT22;35079;52.704;13.814;2023-07-13T08:00:51;23.30;97.40
49242;DHT22;35079;52.704;13.814;2023-07-13T08:03:16;23.40;97.40
49242;DHT22;35079;52.704;13.814;2023-07-13T08:05:42;23.50;97.40
49242;DHT22;35079;52.704;13.814;2023-07-13T08:08:08;23.60;97.00
49242;DHT22;35079;52.704;13.814;2023-07-13T08:10:35;23.70;98.50
49242;DHT22;35079;52.704;13.814;2023-07-13T08:13:02;23.70;97.00
49242;DHT22;35079;52.704;13.814;2023-07-13T08:15:27;23.90;96.70
49242;DHT22;35079;52.704;13.814;2023-07-13T08:17:53;24.10;95.60
49242;DHT22;35079;52.704;13.814;2023-07-13T08:20:19;24.20;94.30
49242;DHT22;35079;52.704;13.814;2023-07-13T08:22:44;24.30;93.90
49242;DHT22;35079;52.704;13.814;2023-07-13T08:25:10;24.40;94.20
49242;DHT22;35079;52.704;13.814;2023-07-13T08:27:35;24.50;94.20
49242;DHT22;35079;52.704;13.814;2023-07-13T08:30:01;24.70;93.60
49242;DHT22;35079;52.704;13.814;2023-07-13T08:32:27;24.60;93.70
49242;DHT22;35079;52.704;13.814;2023-07-13T08:34:53;24.60;93.90
49242;DHT22;35079;52.704;13.814;2023-07-13T08:37:19;25.00;92.30
49242;DHT22;35079;52.704;13.814;2023-07-13T08:39:45;25.10;91.40
49242;DHT22;35079;52.704;13.814;2023-07-13T08:42:35;25.30;91.70
49242;DHT22;35079;52.704;13.814;2023-07-13T08:45:30;25.80;90.60
49242;DHT22;35079;52.704;13.814;2023-07-13T08:48:05;26.00;90.10
49242;DHT22;35079;52.704;13.814;2023-07-13T08:50:35;26.20;89.80
49242;DHT22;35079;52.704;13.814;2023-07-13T08:53:04;26.30;90.00
49242;DHT22;35079;52.704;13.814;2023-07-13T08:55:31;26.50;90.70
49242;DHT22;35079;52.704;13.814;2023-07-13T08:58:25;26.50;86.60
49242;DHT22;35079;52.704;13.814;2023-07-13T09:03:50;26.30;88.30
49242;DHT22;35079;52.704;13.814;2023-07-13T09:06:23;26.20;84.70
49242;DHT22;35079;52.704;13.814;2023-07-13T09:08:59;26.50;85.80
49242;DHT22;35079;52.704;13.814;2023-07-13T09:16:59;27.40;79.30
49242;DHT22;35079;52.704;13.814;2023-07-13T09:19:29;27.20;79.50
49242;DHT22;35079;52.704;13.814;2023-07-13T09:21:59;26.80;82.00
49242;DHT22;35079;52.704;13.814;2023-07-13T09:24:47;26.80;85.60
49242;DHT22;35079;52.704;13.814;2023-07-13T09:27:22;26.80;84.30
49242;DHT22;35079;52.704;13.814;2023-07-13T09:29:54;27.00;81.20
49242;DHT22;35079;52.704;13.814;2023-07-13T09:32:24;26.90;79.40
49242;DHT22;35079;52.704;13.814;2023-07-13T09:34:52;26.90;83.20
49242;DHT22;35079;52.704;13.814;2023-07-13T09:37:21;27.50;80.60
49242;DHT22;35079;52.704;13.814;2023-07-13T09:39:49;27.60;78.00
49242;DHT22;35079;52.704;13.814;2023-07-13T09:42:19;27.70;77.20
49242;DHT22;35079;52.704;13.814;2023-07-13T09:44:56;28.10;75.70
49242;DHT22;35079;52.704;13.814;2023-07-13T09:47:30;28.90;74.60
49242;DHT22;35079;52.704;13.814;2023-07-13T09:50:02;29.60;72.90
49242;DHT22;35079;52.704;13.814;2023-07-13T09:52:40;30.50;70.30
49242;DHT22;35079;52.704;13.814;2023-07-13T09:55:23;31.10;69.40
49242;DHT22;35079;52.704;13.814;2023-07-13T09:57:49;31.90;68.50
49242;DHT22;35079;52.704;13.814;2023-07-13T10:00:28;32.30;65.60
49242;DHT22;35079;52.704;13.814;2023-07-13T10:05:44;32.40;65.00
49242;DHT22;35079;52.704;13.814;2023-07-13T10:08:26;33.20;63.50
49242;DHT22;35079;52.704;13.814;2023-07-13T10:11:01;33.60;59.60
49242;DHT22;35079;52.704;13.814;2023-07-13T10:13:34;34.20;55.40
49242;DHT22;35079;52.704;13.814;2023-07-13T10:16:04;33.30;54.80
49242;DHT22;35079;52.704;13.814;2023-07-13T10:18:45;32.60;58.10
49242;DHT22;35079;52.704;13.814;2023-07-13T10:21:15;32.10;54.20
49242;DHT22;35079;52.704;13.814;2023-07-13T10:23:42;31.40;58.00
49242;DHT22;35079;52.704;13.814;2023-07-13T10:26:27;30.40;60.60
49242;DHT22;35079;52.704;13.814;2023-07-13T10:28:57;30.10;60.50
49242;DHT22;35079;52.704;13.814;2023-07-13T10:31:24;29.70;61.50
49242;DHT22;35079;52.704;13.814;2023-07-13T10:33:50;29.30;60.60
49242;DHT22;35079;52.704;13.814;2023-07-13T10:38:55;28.30;62.40
49242;DHT22;35079;52.704;13.814;2023-07-13T10:41:24;28.50;63.10
49242;DHT22;35079;52.704;13.814;2023-07-13T10:43:52;28.50;65.70
49242;DHT22;35079;52.704;13.814;2023-07-13T10:46:22;27.90;65.60
49242;DHT22;35079;52.704;13.814;2023-07-13T10:48:54;28.00;68.70
49242;DHT22;35079;52.704;13.814;2023-07-13T10:51:21;29.30;66.80
49242;DHT22;35079;52.704;13.814;2023-07-13T10:53:48;30.10;62.50
49242;DHT22;35079;52.704;13.814;2023-07-13T10:56:33;31.30;62.20
49242;DHT22;35079;52.704;13.814;2023-07-13T11:01:41;33.00;57.80
49242;DHT22;35079;52.704;13.814;2023-07-13T11:04:18;32.00;57.70
49242;DHT22;35079;52.704;13.814;2023-07-13T11:06:48;31.00;57.50
49242;DHT22;35079;52.704;13.814;2023-07-13T11:12:06;29.20;60.50
49242;DHT22;35079;52.704;13.814;2023-07-13T11:25:28;33.40;55.70
49242;DHT22;35079;52.704;13.814;2023-07-13T11:28:18;34.10;55.30
49242;DHT22;35079;52.704;13.814;2023-07-13T11:31:01;34.50;53.20
49242;DHT22;35079;52.704;13.814;2023-07-13T11:36:24;34.60;52.50
49242;DHT22;35079;52.704;13.814;2023-07-13T11:41:52;35.30;51.00
49242;DHT22;35079;52.704;13.814;2023-07-13T11:44:23;35.10;50.90
49242;DHT22;35079;52.704;13.814;2023-07-13T11:46:57;35.50;53.30
49242;DHT22;35079;52.704;13.814;2023-07-13T11:49:28;35.30;52.20
49242;DHT22;35079;52.704;13.814;2023-07-13T11:51:54;36.10;50.80
49242;DHT22;35079;52.704;13.814;2023-07-13T11:54:25;35.40;49.50
49242;DHT22;35079;52.704;13.814;2023-07-13T11:56:52;35.40;50.60
49242;DHT22;35079;52.704;13.814;2023-07-13T11:59:18;35.90;48.20
49242;DHT22;35079;52.704;13.814;2023-07-13T12:01:47;36.20;47.10
49242;DHT22;35079;52.704;13.814;2023-07-13T12:04:28;36.00;47.40
49242;DHT22;35079;52.704;13.814;2023-07-13T12:07:06;36.10;44.90
49242;DHT22;35079;52.704;13.814;2023-07-13T12:09:34;35.90;46.80
49242;DHT22;35079;52.704;13.814;2023-07-13T12:12:02;35.30;45.80
49242;DHT22;35079;52.704;13.814;2023-07-13T12:14:28;34.40;47.60
49242;DHT22;35079;52.704;13.814;2023-07-13T12:16:54;33.70;47.20
49242;DHT22;35079;52.704;13.814;2023-07-13T12:19:23;32.80;50.10
49242;DHT22;35079;52.704;13.814;2023-07-13T12:21:52;32.30;50.40
49242;DHT22;35079;52.704;13.814;2023-07-13T12:24:19;33.00;51.30
49242;DHT22;35079;52.704;13.814;2023-07-13T12:27:33;33.70;50.10
49242;DHT22;35079;52.704;13.814;2023-07-13T12:29:39;34.60;49.70
49242;DHT22;35079;52.704;13.814;2023-07-13T12:32:17;35.10;46.10
49242;DHT22;35079;52.704;13.814;2023-07-13T12:35:15;35.50;46.20
49242;DHT22;35079;52.704;13.814;2023-07-13T12:37:46;35.00;46.60
49242;DHT22;35079;52.704;13.814;2023-07-13T12:40:19;34.80;47.50
49242;DHT22;35079;52.704;13.814;2023-07-13T12:42:48;33.80;48.70
49242;DHT22;35079;52.704;13.814;2023-07-13T12:45:23;32.90;47.60
49242;DHT22;35079;52.704;13.814;2023-07-13T12:48:03;32.90;49.10
49242;DHT22;35079;52.704;13.814;2023-07-13T12:50:39;33.10;49.70
49242;DHT22;35079;52.704;13.814;2023-07-13T12:53:13;33.40;50.00
49242;DHT22;35079;52.704;13.814;2023-07-13T12:55:59;34.00;47.90
49242;DHT22;35079;52.704;13.814;2023-07-13T12:58:40;33.70;46.90
49242;DHT22;35079;52.704;13.814;2023-07-13T13:01:10;32.70;49.30
49242;DHT22;35079;52.704;13.814;2023-07-13T13:03:52;32.80;49.60
49242;DHT22;35079;52.704;13.814;2023-07-13T13:08:47;32.90;47.60
49242;DHT22;35079;52.704;13.814;2023-07-13T13:11:14;32.80;48.80
49242;DHT22;35079;52.704;13.814;2023-07-13T13:13:42;32.90;47.70
49242;DHT22;35079;52.704;13.814;2023-07-13T13:16:31;33.30;48.30
49242;DHT22;35079;52.704;13.814;2023-07-13T13:18:59;32.80;48.10
49242;DHT22;35079;52.704;13.814;2023-07-13T13:21:25;31.90;49.60
49242;DHT22;35079;52.704;13.814;2023-07-13T13:23:52;31.50;51.10
49242;DHT22;35079;52.704;13.814;2023-07-13T13:26:19;31.40;48.10
49242;DHT22;35079;52.704;13.814;2023-07-13T13:28:45;31.30;48.90
49242;DHT22;35079;52.704;13.814;2023-07-13T13:31:13;31.60;49.50
49242;DHT22;35079;52.704;13.814;2023-07-13T13:33:42;31.80;48.60
49242;DHT22;35079;52.704;13.814;2023-07-13T13:36:29;31.60;50.90
49242;DHT22;35079;52.704;13.814;2023-07-13T13:38:54;31.20;49.80
49242;DHT22;35079;52.704;13.814;2023-07-13T13:41:20;31.20;51.20
49242;DHT22;35079;52.704;13.814;2023-07-13T13:43:46;31.20;51.50
49242;DHT22;35079;52.704;13.814;2023-07-13T13:46:15;30.90;50.60
49242;DHT22;35079;52.704;13.814;2023-07-13T13:48:41;30.30;50.30
49242;DHT22;35079;52.704;13.814;2023-07-13T13:51:19;29.80;52.20
49242;DHT22;35079;52.704;13.814;2023-07-13T13:53:46;29.70;52.20
49242;DHT22;35079;52.704;13.814;2023-07-13T13:56:13;29.50;53.10
49242;DHT22;35079;52.704;13.814;2023-07-13T13:58:39;29.60;52.20
49242;DHT22;35079;52.704;13.814;2023-07-13T14:01:10;29.40;52.10
49242;DHT22;35079;52.704;13.814;2023-07-13T14:03:37;29.50;51.00
49242;DHT22;35079;52.704;13.814;2023-07-13T14:06:03;29.30;52.50
49242;DHT22;35079;52.704;13.814;2023-07-13T14:08:28;29.20;51.80
49242;DHT22;35079;52.704;13.814;2023-07-13T14:10:56;29.00;52.90
49242;DHT22;35079;52.704;13.814;2023-07-13T14:13:36;28.90;52.60
49242;DHT22;35079;52.704;13.814;2023-07-13T14:16:04;28.90;53.50
49242;DHT22;35079;52.704;13.814;2023-07-13T14:18:34;28.70;54.10
49242;DHT22;35079;52.704;13.814;2023-07-13T14:20:59;28.50;55.90
49242;DHT22;35079;52.704;13.814;2023-07-13T14:23:25;28.20;56.30
49242;DHT22;35079;52.704;13.814;2023-07-13T14:25:50;27.60;54.60
49242;DHT22;35079;52.704;13.814;2023-07-13T14:28:25;27.40;57.60
49242;DHT22;35079;52.704;13.814;2023-07-13T14:30:52;27.60;57.00
49242;DHT22;35079;52.704;13.814;2023-07-13T14:33:20;27.80;58.10
49242;DHT22;35079;52.704;13.814;2023-07-13T14:35:46;27.90;56.50
49242;DHT22;35079;52.704;13.814;2023-07-13T14:38:15;28.00;55.70
49242;DHT22;35079;52.704;13.814;2023-07-13T14:40:41;27.90;57.40
49242;DHT22;35079;52.704;13.814;2023-07-13T14:43:13;27.50;56.80
49242;DHT22;35079;52.704;13.814;2023-07-13T14:45:42;27.70;54.60
49242;DHT22;35079;52.704;13.814;2023-07-13T14:48:20;28.00;54.50
49242;DHT22;35079;52.704;13.814;2023-07-13T14:50:46;27.90;55.20
49242;DHT22;35079;52.704;13.814;2023-07-13T14:53:13;28.00;56.10
49242;DHT22;35079;52.704;13.814;2023-07-13T14:55:39;27.60;57.70
49242;DHT22;35079;52.704;13.814;2023-07-13T14:58:05;27.50;57.50
49242;DHT22;35079;52.704;13.814;2023-07-13T15:00:31;27.20;55.40
49242;DHT22;35079;52.704;13.814;2023-07-13T15:02:58;27.10;56.50
49242;DHT22;35079;52.704;13.814;2023-07-13T15:05:30;27.00;56.10
49242;DHT22;35079;52.704;13.814;2023-07-13T15:07:59;27.00;56.50
49242;DHT22;35079;52.704;13.814;2023-07-13T15:10:32;26.80;57.10
49242;DHT22;35079;52.704;13.814;2023-07-13T15:13:16;26.60;59.80
49242;DHT22;35079;52.704;13.814;2023-07-13T15:15:43;26.60;58.80
49242;DHT22;35079;52.704;13.814;2023-07-13T15:18:12;26.50;57.10
49242;DHT22;35079;52.704;13.814;2023-07-13T15:20:38;26.40;58.00
49242;DHT22;35079;52.704;13.814;2023-07-13T15:23:04;26.20;58.50
49242;DHT22;35079;52.704;13.814;2023-07-13T15:25:32;26.10;59.50
49242;DHT22;35079;52.704;13.814;2023-07-13T15:28:00;26.00;59.80
49242;DHT22;35079;52.704;13.814;2023-07-13T15:30:30;26.00;58.30
49242;DHT22;35079;52.704;13.814;2023-07-13T15:32:58;25.80;60.70
49242;DHT22;35079;52.704;13.814;2023-07-13T15:35:27;25.70;60.80
49242;DHT22;35079;52.704;13.814;2023-07-13T15:37:53;25.60;62.80
49242;DHT22;35079;52.704;13.814;2023-07-13T15:40:19;25.60;62.60
49242;DHT22;35079;52.704;13.814;2023-07-13T15:42:47;25.50;61.50
49242;DHT22;35079;52.704;13.814;2023-07-13T15:45:17;25.60;62.80
49242;DHT22;35079;52.704;13.814;2023-07-13T15:47:44;25.70;61.30
49242;DHT22;35079;52.704;13.814;2023-07-13T15:50:17;25.80;60.60
49242;DHT22;35079;52.704;13.814;2023-07-13T15:52:45;25.70;57.30
49242;DHT22;35079;52.704;13.814;2023-07-13T15:55:13;25.70;58.80
49242;DHT22;35079;52.704;13.814;2023-07-13T15:57:43;25.70;56.50
49242;DHT22;35079;52.704;13.814;2023-07-13T16:00:28;25.70;57.30
49242;DHT22;35079;52.704;13.814;2023-07-13T16:02:54;25.50;58.30
49242;DHT22;35079;52.704;13.814;2023-07-13T16:05:21;25.60;58.00